DZA weather

Dzaoudzi Pamandzi International Airport
Dzaoudzi, Mayotte

Public forecast

Using degrees Celsius for public forecast. Weather courtesy of forecast.io.

METAR (pilot weather report)

Retrieved 2019/07/17 19:30 UTC (21 minutes ago):

FMCZ 171930Z AUTO 16009KT CAVOK 25/20 Q1020 NOSIG

TAF (pilot weather forecast)

Retrieved 2019/07/17 18:06 UTC (2 hours ago):

TAF FMCZ 171700Z 1718/1818 15010KT 9999 FEW030 TEMPO 1805/1808 05010KT